Time;durP1;ratioP1;P1;durP2;ratioP2;P2;SDS_P1;SDS_P2;PMS_P1;PMS_P2;Temp;Humidity;BMP_temperature;BMP_pressure;BME280_temperature;BME280_humidity;BME280_pressure;Samples;Min_cycle;Max_cycle;Signal;HPM_P1;HPM_P2
2022/05/04 00:00:24;;;;;;;2.30;1.30;;;;;;;;;;4938252;29;20039;-81
2022/05/04 00:02:49;;;;;;;3.63;1.30;;;;;;;;;;4954495;29;20038;-80
2022/05/04 00:05:15;;;;;;;4.30;1.40;;;;;;;;;;4954258;29;20031;-81
2022/05/04 00:07:40;;;;;;;3.17;1.42;;;;;;;;;;4953953;29;20072;-82
2022/05/04 00:10:07;;;;;;;3.33;1.60;;;;;;;;;;4954576;29;20324;-81
2022/05/04 00:12:36;;;;;;;3.05;1.67;;;;;;;;;;4938647;29;20039;-81
2022/05/04 00:15:02;;;;;;;3.08;1.33;;;;;;;;;;4955148;28;20027;-81
2022/05/04 00:17:27;;;;;;;2.58;1.30;;;;;;;;;;4954080;29;20335;-80
2022/05/04 00:19:53;;;;;;;2.28;1.30;;;;;;;;;;4955206;29;20051;-80
2022/05/04 00:22:20;;;;;;;3.47;1.40;;;;;;;;;;4938019;29;20079;-79
2022/05/04 00:24:46;;;;;;;3.70;1.50;;;;;;;;;;4953931;29;20027;-80
2022/05/04 00:27:15;;;;;;;2.35;1.17;;;;;;;;;;4955171;29;20042;-80
2022/05/04 00:29:40;;;;;;;3.85;1.60;;;;;;;;;;4955957;29;20138;-81
2022/05/04 00:32:06;;;;;;;5.35;1.83;;;;;;;;;;4954168;29;20082;-81
2022/05/04 00:34:31;;;;;;;2.80;1.20;;;;;;;;;;4953635;29;20031;-81
2022/05/04 00:37:01;;;;;;;5.78;1.73;;;;;;;;;;4938060;29;20122;-81
2022/05/04 00:39:26;;;;;;;4.53;1.50;;;;;;;;;;4953685;29;20023;-81
2022/05/04 00:41:52;;;;;;;2.55;1.35;;;;;;;;;;4953864;28;20119;-81
2022/05/04 00:44:18;;;;;;;2.97;1.50;;;;;;;;;;4938205;29;20078;-81
2022/05/04 00:46:44;;;;;;;3.95;1.60;;;;;;;;;;4954225;28;20035;-81
2022/05/04 00:49:11;;;;;;;3.55;1.55;;;;;;;;;;4954092;29;20517;-81
2022/05/04 00:51:36;;;;;;;7.35;1.67;;;;;;;;;;4954400;28;20121;-81
2022/05/04 00:54:03;;;;;;;3.63;1.50;;;;;;;;;;4938636;29;20449;-81
2022/05/04 00:56:30;;;;;;;4.95;1.55;;;;;;;;;;4954006;29;20054;-82
2022/05/04 00:58:56;;;;;;;3.20;1.60;;;;;;;;;;4922375;29;20099;-81
2022/05/04 01:01:28;;;;;;;3.75;1.50;;;;;;;;;;4938247;29;20023;-81
2022/05/04 01:03:55;;;;;;;5.07;1.52;;;;;;;;;;4970201;28;20094;-81
2022/05/04 01:06:20;;;;;;;4.60;1.65;;;;;;;;;;4954598;29;20476;-81
2022/05/04 01:08:48;;;;;;;1.88;1.20;;;;;;;;;;4954550;29;20031;-81
2022/05/04 01:11:13;;;;;;;3.97;1.50;;;;;;;;;;4955007;29;20023;-80
2022/05/04 01:13:38;;;;;;;2.10;1.10;;;;;;;;;;4953802;29;20109;-80
2022/05/04 01:16:04;;;;;;;2.67;1.50;;;;;;;;;;4955047;28;20047;-81
2022/05/04 01:18:29;;;;;;;5.75;1.55;;;;;;;;;;4921878;29;20039;-80
2022/05/04 01:20:54;;;;;;;3.47;1.75;;;;;;;;;;4937054;29;20045;-81
2022/05/04 01:23:20;;;;;;;4.68;1.73;;;;;;;;;;4937363;29;20030;-80
2022/05/04 01:25:46;;;;;;;2.20;1.27;;;;;;;;;;4952980;29;20540;-81
2022/05/04 01:28:11;;;;;;;3.40;1.40;;;;;;;;;;4953070;29;20024;-81
2022/05/04 01:30:37;;;;;;;3.95;1.52;;;;;;;;;;4954508;29;20075;-81
2022/05/04 01:33:03;;;;;;;2.83;1.50;;;;;;;;;;4937196;29;20546;-81
2022/05/04 01:35:28;;;;;;;2.20;1.30;;;;;;;;;;4952991;29;20039;-81
2022/05/04 01:37:54;;;;;;;3.10;1.50;;;;;;;;;;4937166;29;20479;-81
2022/05/04 01:40:19;;;;;;;3.08;1.42;;;;;;;;;;4952915;29;20105;-81
2022/05/04 01:42:44;;;;;;;3.17;1.38;;;;;;;;;;4936784;29;20032;-81
2022/05/04 01:45:11;;;;;;;4.55;1.58;;;;;;;;;;4952869;29;20035;-80
2022/05/04 01:47:36;;;;;;;3.47;1.52;;;;;;;;;;4952900;28;20105;-81
2022/05/04 01:50:03;;;;;;;2.53;1.40;;;;;;;;;;4952617;29;20043;-81
2022/05/04 01:52:29;;;;;;;4.68;1.60;;;;;;;;;;4936725;29;20035;-81
2022/05/04 01:54:55;;;;;;;4.63;1.30;;;;;;;;;;4954052;29;20027;-80
2022/05/04 01:57:21;;;;;;;4.75;1.55;;;;;;;;;;4936591;29;20183;-81
2022/05/04 01:59:46;;;;;;;2.80;1.23;;;;;;;;;;4952639;29;20035;-81
2022/05/04 02:02:11;;;;;;;4.93;1.92;;;;;;;;;;4953485;28;20490;-81
2022/05/04 02:04:37;;;;;;;5.03;1.52;;;;;;;;;;4940679;29;20443;-81
2022/05/04 02:07:03;;;;;;;2.10;1.38;;;;;;;;;;4958505;29;20035;-81
2022/05/04 02:09:29;;;;;;;4.65;1.60;;;;;;;;;;4957485;29;20031;-81
2022/05/04 02:11:55;;;;;;;2.67;1.27;;;;;;;;;;4958121;28;20118;-81
2022/05/04 02:14:20;;;;;;;3.10;1.70;;;;;;;;;;4956553;29;20122;-81
2022/05/04 02:16:46;;;;;;;3.30;1.35;;;;;;;;;;4956575;29;20135;-81
2022/05/04 02:19:12;;;;;;;4.93;1.73;;;;;;;;;;4940576;29;20102;-81
2022/05/04 02:21:37;;;;;;;2.88;1.52;;;;;;;;;;4972500;28;20127;-81
2022/05/04 02:24:03;;;;;;;5.57;1.77;;;;;;;;;;4956412;29;20122;-81
2022/05/04 02:26:28;;;;;;;4.38;1.60;;;;;;;;;;4956312;29;20031;-81
2022/05/04 02:28:54;;;;;;;5.70;1.45;;;;;;;;;;4940221;29;20043;-81
2022/05/04 02:31:19;;;;;;;4.00;1.52;;;;;;;;;;4957336;29;20106;-81
2022/05/04 02:33:47;;;;;;;4.15;1.40;;;;;;;;;;4956286;29;20114;-81
2022/05/04 02:38:57;;;;;;;4.90;1.40;;;;;;;;;;4956332;29;20042;-81
2022/05/04 02:41:23;;;;;;;3.10;1.50;;;;;;;;;;4955857;28;20126;-80
2022/05/04 02:43:49;;;;;;;1.90;1.30;;;;;;;;;;4955674;29;20031;-81
2022/05/04 02:46:16;;;;;;;1.98;1.35;;;;;;;;;;4955694;29;20054;-81
2022/05/04 02:48:42;;;;;;;3.22;1.45;;;;;;;;;;4955719;29;20458;-81
2022/05/04 02:51:07;;;;;;;4.20;1.70;;;;;;;;;;4939579;29;20073;-81
2022/05/04 02:53:33;;;;;;;3.47;1.48;;;;;;;;;;4939714;29;20370;-81
2022/05/04 02:55:58;;;;;;;2.70;1.50;;;;;;;;;;4955345;29;20097;-80
2022/05/04 02:58:24;;;;;;;3.50;1.30;;;;;;;;;;4956664;29;20054;-81
2022/05/04 03:00:49;;;;;;;5.28;1.38;;;;;;;;;;4956913;29;20063;-81
2022/05/04 03:03:15;;;;;;;3.65;1.58;;;;;;;;;;4956633;29;20114;-80
2022/05/04 03:05:40;;;;;;;4.60;1.52;;;;;;;;;;4955180;29;20030;-81
2022/05/04 03:08:06;;;;;;;3.35;1.42;;;;;;;;;;4955252;29;20062;-80
2022/05/04 03:11:54;;;;;;;5.00;1.75;;;;;;;;;;4939200;29;20145;-81
2022/05/04 03:13:16;;;;;;;5.20;1.50;;;;;;;;;;4955053;28;20143;-81
2022/05/04 03:15:42;;;;;;;2.72;1.10;;;;;;;;;;4939331;29;20042;-80
2022/05/04 03:18:07;;;;;;;4.68;1.80;;;;;;;;;;4939192;29;20036;-81
2022/05/04 03:20:33;;;;;;;3.25;1.50;;;;;;;;;;4954987;29;20035;-81
2022/05/04 03:22:58;;;;;;;5.20;1.52;;;;;;;;;;4955067;29;20456;-81
2022/05/04 03:25:23;;;;;;;3.22;1.50;;;;;;;;;;4938829;29;20027;-81
2022/05/04 03:27:49;;;;;;;3.30;1.40;;;;;;;;;;4954999;29;20086;-80
2022/05/04 03:30:14;;;;;;;6.00;1.58;;;;;;;;;;4923136;29;20118;-81
2022/05/04 03:32:40;;;;;;;2.67;1.45;;;;;;;;;;4954403;29;20039;-81
2022/05/04 03:35:06;;;;;;;3.38;1.95;;;;;;;;;;4954535;29;20437;-81
2022/05/04 03:37:31;;;;;;;4.90;1.73;;;;;;;;;;4955258;29;20043;-81
2022/05/04 03:39:56;;;;;;;5.75;1.38;;;;;;;;;;4954978;29;20162;-80
2022/05/04 03:42:22;;;;;;;2.42;1.42;;;;;;;;;;4938831;29;20035;-81
2022/05/04 03:44:47;;;;;;;3.10;1.60;;;;;;;;;;4954382;29;20059;-81
2022/05/04 03:47:13;;;;;;;4.20;1.55;;;;;;;;;;4956218;29;20032;-80
2022/05/04 03:49:38;;;;;;;4.18;1.60;;;;;;;;;;4955170;29;20338;-81
2022/05/04 03:52:03;;;;;;;3.85;1.50;;;;;;;;;;4938380;29;20036;-81
2022/05/04 03:54:29;;;;;;;3.03;1.38;;;;;;;;;;4954568;29;20113;-80
2022/05/04 03:56:54;;;;;;;3.80;1.67;;;;;;;;;;4953718;29;20035;-80
2022/05/04 03:59:20;;;;;;;3.67;1.42;;;;;;;;;;4938532;29;20035;-81
2022/05/04 04:01:45;;;;;;;3.25;1.45;;;;;;;;;;4938054;29;20031;-81
2022/05/04 04:04:11;;;;;;;4.93;1.58;;;;;;;;;;4938202;29;20035;-80
2022/05/04 04:06:36;;;;;;;3.03;1.40;;;;;;;;;;4938438;29;20034;-81
2022/05/04 04:09:03;;;;;;;4.38;1.80;;;;;;;;;;4906798;29;20035;-80
2022/05/04 04:11:29;;;;;;;3.63;1.63;;;;;;;;;;4938008;29;20414;-81
2022/05/04 04:13:54;;;;;;;3.78;1.35;;;;;;;;;;4938196;29;20138;-81
2022/05/04 04:16:20;;;;;;;4.25;1.75;;;;;;;;;;4922096;29;20514;-81
2022/05/04 04:18:45;;;;;;;2.55;1.70;;;;;;;;;;4938187;29;20027;-80
2022/05/04 04:23:55;;;;;;;3.25;1.50;;;;;;;;;;4926934;29;20063;-81
2022/05/04 04:26:20;;;;;;;3.92;1.35;;;;;;;;;;4937413;29;20443;-81
2022/05/04 04:28:46;;;;;;;5.63;2.05;;;;;;;;;;4906037;29;20026;-81
2022/05/04 04:31:11;;;;;;;4.78;1.30;;;;;;;;;;4937982;29;20031;-80
2022/05/04 04:33:37;;;;;;;3.63;1.50;;;;;;;;;;4922591;29;20027;-81
2022/05/04 04:36:03;;;;;;;4.28;1.50;;;;;;;;;;4938381;29;20031;-80
2022/05/04 04:38:29;;;;;;;4.85;1.60;;;;;;;;;;4955470;29;20489;-81
2022/05/04 04:40:55;;;;;;;2.42;1.55;;;;;;;;;;4938248;28;20035;-81
2022/05/04 04:43:20;;;;;;;4.35;1.70;;;;;;;;;;4938235;29;20060;-81
2022/05/04 04:45:47;;;;;;;2.33;1.30;;;;;;;;;;4922158;29;20070;-81
2022/05/04 04:48:14;;;;;;;2.78;1.23;;;;;;;;;;4938151;29;20035;-81
2022/05/04 04:50:39;;;;;;;3.22;1.35;;;;;;;;;;4938454;29;20030;-81
2022/05/04 04:53:05;;;;;;;3.92;1.60;;;;;;;;;;4938015;29;20443;-81
2022/05/04 04:55:30;;;;;;;3.28;1.45;;;;;;;;;;4937932;29;20498;-81
2022/05/04 04:57:55;;;;;;;3.15;1.30;;;;;;;;;;4937290;29;20076;-81
2022/05/04 05:00:21;;;;;;;3.40;1.55;;;;;;;;;;4937017;29;20039;-81
2022/05/04 05:02:47;;;;;;;3.40;1.85;;;;;;;;;;4937160;29;20035;-81
2022/05/04 05:05:12;;;;;;;4.47;1.83;;;;;;;;;;4921357;29;20027;-81
2022/05/04 05:07:38;;;;;;;4.30;1.40;;;;;;;;;;4921170;29;20034;-81
2022/05/04 05:10:05;;;;;;;2.60;1.30;;;;;;;;;;4905422;29;20386;-81
2022/05/04 05:12:30;;;;;;;5.05;1.90;;;;;;;;;;4936953;29;20112;-81
2022/05/04 05:17:40;;;;;;;2.85;1.50;;;;;;;;;;4926312;29;20042;-81
2022/05/04 05:20:06;;;;;;;3.55;1.75;;;;;;;;;;4921089;29;20039;-81
2022/05/04 05:22:31;;;;;;;2.38;1.40;;;;;;;;;;4936770;29;20414;-81
2022/05/04 05:24:57;;;;;;;3.15;1.58;;;;;;;;;;4936838;29;20114;-81
2022/05/04 05:27:23;;;;;;;3.67;1.45;;;;;;;;;;4936840;29;20026;-81
2022/05/04 05:29:48;;;;;;;2.63;1.40;;;;;;;;;;4936859;29;20442;-81
2022/05/04 05:32:14;;;;;;;5.15;1.67;;;;;;;;;;4936686;29;20106;-81
2022/05/04 05:34:39;;;;;;;4.00;1.30;;;;;;;;;;4953808;29;20053;-81
2022/05/04 05:37:04;;;;;;;3.67;1.60;;;;;;;;;;4920391;29;20042;-81
2022/05/04 05:39:30;;;;;;;6.47;1.63;;;;;;;;;;4921010;29;20054;-81
2022/05/04 05:41:55;;;;;;;3.03;1.30;;;;;;;;;;4920987;29;20518;-81
2022/05/04 05:44:20;;;;;;;4.22;1.63;;;;;;;;;;4921088;29;20023;-81
2022/05/04 05:46:46;;;;;;;5.70;1.52;;;;;;;;;;4920602;29;20117;-81
2022/05/04 05:49:11;;;;;;;6.13;1.83;;;;;;;;;;4953808;29;20055;-81
2022/05/04 05:51:36;;;;;;;3.10;1.40;;;;;;;;;;4920565;29;20079;-81
2022/05/04 05:54:02;;;;;;;2.55;1.30;;;;;;;;;;4953493;29;20134;-80
2022/05/04 05:56:27;;;;;;;4.03;1.60;;;;;;;;;;4936661;29;20035;-81
2022/05/04 05:58:52;;;;;;;1.70;1.30;;;;;;;;;;4909707;29;1254231;-81
2022/05/04 06:01:18;;;;;;;4.38;1.60;;;;;;;;;;4921223;29;20130;-81
2022/05/04 06:03:43;;;;;;;2.38;1.40;;;;;;;;;;4937347;29;20031;-81
2022/05/04 06:06:09;;;;;;;3.08;1.63;;;;;;;;;;4937429;29;20109;-81
2022/05/04 06:08:34;;;;;;;2.75;1.30;;;;;;;;;;4953011;29;20478;-81
2022/05/04 06:11:00;;;;;;;3.50;1.60;;;;;;;;;;4921667;29;20130;-82
2022/05/04 06:13:25;;;;;;;2.03;1.50;;;;;;;;;;4905633;29;20442;-81
2022/05/04 06:15:50;;;;;;;3.83;1.90;;;;;;;;;;4921262;29;20176;-81
2022/05/04 06:18:16;;;;;;;3.63;1.58;;;;;;;;;;4937151;29;20074;-80
2022/05/04 06:20:41;;;;;;;2.22;1.35;;;;;;;;;;4921453;29;20343;-79
2022/05/04 06:23:08;;;;;;;3.05;1.73;;;;;;;;;;4937141;29;20090;-79
2022/05/04 06:25:35;;;;;;;4.47;1.60;;;;;;;;;;4937127;29;20027;-79
2022/05/04 06:28:01;;;;;;;3.20;1.30;;;;;;;;;;4954310;29;20031;-80
2022/05/04 06:35:53;;;;;;;2.70;1.50;;;;;;;;;;4954413;29;20062;-79
2022/05/04 06:38:19;;;;;;;3.30;1.50;;;;;;;;;;4952729;29;20478;-80
2022/05/04 06:40:44;;;;;;;3.30;1.20;;;;;;;;;;4936875;29;20038;-80
2022/05/04 06:43:10;;;;;;;4.15;1.50;;;;;;;;;;4936850;29;20493;-80
2022/05/04 06:45:35;;;;;;;3.45;1.27;;;;;;;;;;4921113;29;20031;-80
2022/05/04 06:48:02;;;;;;;2.85;1.45;;;;;;;;;;4955092;28;20056;-80
2022/05/04 06:50:28;;;;;;;1.60;1.27;;;;;;;;;;4924854;29;20121;-79
2022/05/04 06:52:54;;;;;;;3.20;1.35;;;;;;;;;;4957300;29;20090;-79
2022/05/04 06:55:19;;;;;;;4.03;1.35;;;;;;;;;;4940108;29;20382;-79
2022/05/04 06:57:45;;;;;;;2.47;1.20;;;;;;;;;;4939941;29;20487;-79
2022/05/04 07:00:11;;;;;;;3.35;1.60;;;;;;;;;;4940259;29;20043;-79
2022/05/04 07:02:36;;;;;;;2.25;1.20;;;;;;;;;;4940013;29;20035;-79
2022/05/04 07:05:04;;;;;;;4.03;1.67;;;;;;;;;;4956813;29;20031;-79
2022/05/04 07:07:29;;;;;;;5.40;1.70;;;;;;;;;;4942126;29;20110;-79
2022/05/04 07:09:55;;;;;;;1.60;1.10;;;;;;;;;;4925405;29;20430;-79
2022/05/04 07:12:21;;;;;;;3.40;1.70;;;;;;;;;;4940234;29;20406;-80
2022/05/04 07:14:47;;;;;;;1.63;1.30;;;;;;;;;;4940287;29;20166;-79
2022/05/04 07:17:12;;;;;;;3.97;1.60;;;;;;;;;;4957218;29;20119;-80
2022/05/04 07:19:37;;;;;;;2.10;1.10;;;;;;;;;;4957109;29;20039;-79
2022/05/04 07:22:03;;;;;;;2.55;1.42;;;;;;;;;;4957855;29;20042;-80
2022/05/04 07:24:29;;;;;;;4.00;1.70;;;;;;;;;;4940968;29;20078;-80
2022/05/04 07:26:54;;;;;;;1.90;1.48;;;;;;;;;;4957302;29;20058;-80
2022/05/04 07:29:20;;;;;;;3.40;1.50;;;;;;;;;;4939992;29;20462;-80
2022/05/04 07:31:45;;;;;;;3.30;1.40;;;;;;;;;;4939781;29;20389;-80
2022/05/04 07:34:11;;;;;;;3.50;1.48;;;;;;;;;;4956990;29;20035;-81
2022/05/04 07:36:37;;;;;;;3.75;1.63;;;;;;;;;;4924095;29;20034;-80
2022/05/04 07:39:03;;;;;;;2.38;1.38;;;;;;;;;;4923576;29;20031;-80
2022/05/04 07:44:12;;;;;;;2.92;1.60;;;;;;;;;;4956834;29;20042;-81
2022/05/04 07:46:37;;;;;;;2.58;1.77;;;;;;;;;;4955056;29;20035;-80
2022/05/04 07:49:04;;;;;;;2.08;1.63;;;;;;;;;;4938601;29;20069;-82
2022/05/04 07:51:29;;;;;;;3.05;1.33;;;;;;;;;;4922858;29;20131;-83
2022/05/04 07:53:55;;;;;;;2.33;1.40;;;;;;;;;;4938289;29;20541;-82
2022/05/04 07:56:20;;;;;;;4.43;1.65;;;;;;;;;;4906772;29;20086;-82
2022/05/04 07:58:46;;;;;;;1.67;1.15;;;;;;;;;;4938068;29;20055;-81
2022/05/04 08:06:39;;;;;;;2.70;1.58;;;;;;;;;;4940903;29;20046;-81
2022/05/04 08:09:04;;;;;;;1.80;1.10;;;;;;;;;;4922903;29;20031;-83
2022/05/04 08:11:30;;;;;;;1.88;1.25;;;;;;;;;;4938164;29;20066;-81
2022/05/04 08:13:55;;;;;;;4.93;1.30;;;;;;;;;;4922447;29;20028;-82
2022/05/04 08:16:21;;;;;;;2.15;1.20;;;;;;;;;;4922337;29;20039;-81
2022/05/04 08:18:47;;;;;;;3.05;1.65;;;;;;;;;;4937921;29;20082;-83
2022/05/04 08:21:13;;;;;;;6.53;1.60;;;;;;;;;;4955520;29;20034;-82
2022/05/04 08:23:38;;;;;;;3.22;1.23;;;;;;;;;;4939479;29;20070;-82
2022/05/04 08:26:04;;;;;;;2.03;1.20;;;;;;;;;;4922474;29;20071;-82
2022/05/04 08:28:30;;;;;;;1.38;0.98;;;;;;;;;;4938251;29;20110;-82
2022/05/04 08:30:56;;;;;;;1.92;1.20;;;;;;;;;;4938042;29;20062;-82
2022/05/04 08:33:22;;;;;;;4.47;1.50;;;;;;;;;;4937951;29;20110;-83
2022/05/04 08:35:47;;;;;;;2.88;1.13;;;;;;;;;;4955430;29;20031;-83
2022/05/04 08:38:12;;;;;;;2.30;1.50;;;;;;;;;;4921690;29;20488;-82
2022/05/04 08:40:41;;;;;;;2.50;1.13;;;;;;;;;;4937278;29;20529;-83
2022/05/04 08:43:07;;;;;;;1.40;0.98;;;;;;;;;;4937895;29;20051;-83
2022/05/04 08:45:37;;;;;;;3.15;1.25;;;;;;;;;;4921541;29;20081;-83
2022/05/04 08:48:04;;;;;;;2.70;1.33;;;;;;;;;;4936863;29;20040;-84
2022/05/04 08:50:31;;;;;;;1.33;1.15;;;;;;;;;;4937448;29;20023;-82
2022/05/04 08:52:56;;;;;;;3.15;1.40;;;;;;;;;;4937484;29;20482;-84
2022/05/04 08:55:23;;;;;;;2.20;1.40;;;;;;;;;;4953794;29;20042;-82
2022/05/04 08:57:49;;;;;;;2.75;1.48;;;;;;;;;;4955066;29;20067;-83
2022/05/04 09:00:15;;;;;;;2.15;1.30;;;;;;;;;;4921806;29;20044;-83
2022/05/04 09:02:41;;;;;;;2.05;1.52;;;;;;;;;;4921185;29;20398;-85
2022/05/04 09:05:32;;;;;;;2.63;1.35;;;;;;;;;;4936985;29;20038;-81
2022/05/04 09:07:58;;;;;;;2.50;1.33;;;;;;;;;;4938052;29;20024;-82
2022/05/04 09:10:32;;;;;;;3.80;1.50;;;;;;;;;;4921468;29;20118;-82
2022/05/04 09:12:59;;;;;;;4.75;2.42;;;;;;;;;;4937156;29;20027;-83
2022/05/04 09:15:28;;;;;;;2.22;1.58;;;;;;;;;;4952843;29;20039;-82
2022/05/04 09:17:56;;;;;;;2.55;1.55;;;;;;;;;;4936835;29;20505;-83
2022/05/04 09:20:45;;;;;;;2.75;1.42;;;;;;;;;;4921434;29;20042;-81
2022/05/04 09:23:14;;;;;;;2.92;1.48;;;;;;;;;;4939041;29;20426;-81
2022/05/04 09:25:40;;;;;;;5.35;1.60;;;;;;;;;;4936478;29;20038;-82
2022/05/04 09:28:13;;;;;;;3.88;1.45;;;;;;;;;;4937022;29;20021;-83
2022/05/04 09:30:50;;;;;;;2.45;1.27;;;;;;;;;;4954431;29;20053;-82
2022/05/04 09:33:17;;;;;;;6.50;1.60;;;;;;;;;;4937126;29;20031;-83
2022/05/04 09:35:43;;;;;;;3.55;1.52;;;;;;;;;;4937398;29;20375;-82
2022/05/04 09:46:32;;;;;;;;;;;;;;;;;;4907488;29;20106;-84
2022/05/04 09:48:58;;;;;;;3.28;1.63;;;;;;;;;;4933446;29;19910;-82
2022/05/04 09:51:28;;;;;;;4.47;1.90;;;;;;;;;;4901574;29;20031;-81
2022/05/04 09:53:54;;;;;;;3.67;1.33;;;;;;;;;;4917884;29;20036;-82
2022/05/04 09:56:20;;;;;;;4.65;1.75;;;;;;;;;;4901708;29;20191;-82
2022/05/04 09:58:46;;;;;;;3.55;1.60;;;;;;;;;;4943720;29;20495;-83
2022/05/04 10:01:11;;;;;;;4.40;1.52;;;;;;;;;;4953823;29;20106;-83
2022/05/04 10:03:37;;;;;;;3.10;1.40;;;;;;;;;;4952383;29;20114;-82
2022/05/04 10:06:03;;;;;;;1.98;1.65;;;;;;;;;;4936132;29;20027;-81
2022/05/04 10:08:29;;;;;;;3.00;1.90;;;;;;;;;;4954914;28;20053;-82
2022/05/04 10:10:54;;;;;;;4.38;1.58;;;;;;;;;;4955414;28;20027;-81
2022/05/04 10:13:20;;;;;;;3.92;1.80;;;;;;;;;;4939500;28;20064;-82
2022/05/04 10:15:47;;;;;;;2.83;1.95;;;;;;;;;;4954984;28;20031;-81
2022/05/04 10:18:18;;;;;;;4.53;1.63;;;;;;;;;;4955014;28;20038;-81
2022/05/04 10:21:05;;;;;;;7.03;2.00;;;;;;;;;;4955235;28;20034;-81
2022/05/04 10:23:36;;;;;;;4.93;1.80;;;;;;;;;;4973680;28;20027;-82
2022/05/04 10:26:04;;;;;;;5.00;1.85;;;;;;;;;;4942736;28;20086;-82
2022/05/04 10:28:35;;;;;;;3.92;1.75;;;;;;;;;;4976237;28;20405;-81
2022/05/04 10:31:01;;;;;;;3.28;1.73;;;;;;;;;;4958948;28;20026;-82
2022/05/04 10:33:36;;;;;;;2.25;1.40;;;;;;;;;;4942781;28;20078;-82
2022/05/04 10:36:15;;;;;;;3.22;1.70;;;;;;;;;;4958782;28;20426;-81
2022/05/04 10:38:44;;;;;;;5.53;1.60;;;;;;;;;;4975425;28;20035;-81
2022/05/04 10:41:11;;;;;;;3.58;1.60;;;;;;;;;;4959082;28;20030;-82
2022/05/04 10:43:47;;;;;;;4.47;1.90;;;;;;;;;;4959101;28;20026;-82
2022/05/04 10:46:21;;;;;;;2.60;1.30;;;;;;;;;;4976687;28;20046;-82
2022/05/04 10:48:59;;;;;;;4.50;1.48;;;;;;;;;;4976324;28;20048;-82
2022/05/04 10:51:29;;;;;;;3.35;1.70;;;;;;;;;;4959023;28;20035;-82
2022/05/04 10:54:04;;;;;;;3.35;1.98;;;;;;;;;;4976738;28;20027;-82
2022/05/04 10:56:40;;;;;;;3.45;1.67;;;;;;;;;;4958769;28;20030;-82
2022/05/04 10:59:05;;;;;;;2.17;1.23;;;;;;;;;;4955607;28;20139;-82
2022/05/04 11:01:34;;;;;;;2.10;1.50;;;;;;;;;;4956209;29;20532;-84
2022/05/04 11:04:11;;;;;;;2.25;1.30;;;;;;;;;;4958332;29;20119;-85
2022/05/04 11:06:39;;;;;;;2.03;1.70;;;;;;;;;;4957639;29;20130;-85
2022/05/04 11:09:05;;;;;;;4.07;1.60;;;;;;;;;;4952747;29;20039;-83
2022/05/04 11:11:32;;;;;;;4.28;1.77;;;;;;;;;;4957411;28;20039;-84
2022/05/04 11:13:58;;;;;;;2.58;1.65;;;;;;;;;;4957070;28;20034;-84
2022/05/04 11:16:24;;;;;;;3.78;1.75;;;;;;;;;;4939622;29;20058;-83
2022/05/04 11:18:51;;;;;;;5.28;2.22;;;;;;;;;;4955877;29;20035;-83
2022/05/04 11:21:17;;;;;;;2.50;1.42;;;;;;;;;;4957128;28;20454;-83
2022/05/04 11:23:55;;;;;;;2.70;1.77;;;;;;;;;;4956587;28;20086;-83
2022/05/04 11:26:26;;;;;;;2.40;1.80;;;;;;;;;;4939477;29;20034;-83
2022/05/04 11:28:52;;;;;;;5.68;1.90;;;;;;;;;;4955380;29;20047;-84
2022/05/04 11:31:19;;;;;;;5.07;2.08;;;;;;;;;;4971152;28;20393;-83
2022/05/04 11:33:45;;;;;;;5.60;1.90;;;;;;;;;;4956585;28;20435;-84
2022/05/04 11:36:12;;;;;;;3.65;2.17;;;;;;;;;;4955320;29;20023;-83
2022/05/04 11:38:37;;;;;;;4.40;1.85;;;;;;;;;;4938849;29;20024;-83
2022/05/04 11:41:03;;;;;;;4.15;1.98;;;;;;;;;;4970875;28;20046;-83
2022/05/04 11:43:34;;;;;;;6.32;1.75;;;;;;;;;;4956668;28;20110;-84
2022/05/04 11:46:06;;;;;;;4.88;1.85;;;;;;;;;;4955037;29;20037;-83
2022/05/04 11:48:32;;;;;;;2.38;1.45;;;;;;;;;;4955032;29;20054;-84
2022/05/04 11:50:57;;;;;;;3.85;1.92;;;;;;;;;;4939203;29;20038;-84
2022/05/04 11:53:23;;;;;;;7.07;2.33;;;;;;;;;;4954913;29;20032;-83
2022/05/04 11:55:48;;;;;;;4.55;1.52;;;;;;;;;;4970579;28;20448;-82
2022/05/04 11:58:14;;;;;;;6.15;1.77;;;;;;;;;;4954242;29;20138;-82
2022/05/04 12:00:43;;;;;;;6.22;1.90;;;;;;;;;;4955807;28;20027;-82
2022/05/04 12:03:09;;;;;;;4.43;1.92;;;;;;;;;;4954250;28;20027;-82
2022/05/04 12:05:36;;;;;;;3.10;1.90;;;;;;;;;;4955094;29;20051;-82
2022/05/04 12:08:06;;;;;;;3.03;1.95;;;;;;;;;;4955351;29;20446;-83
2022/05/04 12:10:32;;;;;;;5.35;2.08;;;;;;;;;;4955806;29;20031;-85
2022/05/04 12:12:59;;;;;;;6.03;2.15;;;;;;;;;;4954560;29;20090;-81
2022/05/04 12:15:30;;;;;;;4.00;2.00;;;;;;;;;;4954315;29;20027;-84
2022/05/04 12:18:05;;;;;;;3.60;2.20;;;;;;;;;;4951662;29;20427;-82
2022/05/04 12:20:34;;;;;;;3.72;1.90;;;;;;;;;;4954263;29;20439;-83
2022/05/04 12:23:01;;;;;;;5.75;2.50;;;;;;;;;;4938385;29;20038;-82
2022/05/04 12:25:27;;;;;;;2.58;1.67;;;;;;;;;;4937670;29;20035;-82
2022/05/04 12:27:54;;;;;;;6.03;2.40;;;;;;;;;;4954087;29;20471;-85
2022/05/04 12:33:08;;;;;;;3.03;1.80;;;;;;;;;;4954311;29;20409;-84
2022/05/04 12:35:37;;;;;;;5.20;2.38;;;;;;;;;;4954066;29;20054;-85
2022/05/04 12:38:04;;;;;;;9.73;2.38;;;;;;;;;;4953892;29;20023;-84
2022/05/04 12:40:31;;;;;;;3.47;1.95;;;;;;;;;;4954193;29;20035;-83
2022/05/04 12:42:58;;;;;;;5.30;2.10;;;;;;;;;;4953422;28;20043;-81
2022/05/04 12:45:24;;;;;;;5.70;2.05;;;;;;;;;;4953118;28;20038;-83
2022/05/04 12:47:51;;;;;;;3.58;1.80;;;;;;;;;;4952916;29;20027;-84
2022/05/04 12:50:16;;;;;;;4.00;2.10;;;;;;;;;;4937428;29;20054;-83
2022/05/04 12:52:41;;;;;;;3.63;2.10;;;;;;;;;;4969517;28;20066;-84
2022/05/04 12:55:07;;;;;;;4.00;2.40;;;;;;;;;;4954932;28;20132;-83
2022/05/04 12:57:32;;;;;;;2.80;1.80;;;;;;;;;;4936925;29;20079;-83
2022/05/04 12:59:58;;;;;;;4.63;1.83;;;;;;;;;;4954577;28;20031;-84
2022/05/04 13:02:23;;;;;;;3.15;2.20;;;;;;;;;;4969286;28;20541;-83
2022/05/04 13:04:49;;;;;;;6.72;2.92;;;;;;;;;;4954684;28;20027;-83
2022/05/04 13:07:14;;;;;;;6.78;2.42;;;;;;;;;;4953541;29;20031;-83
2022/05/04 13:09:42;;;;;;;5.50;2.30;;;;;;;;;;4937495;29;20154;-86
2022/05/04 13:12:11;;;;;;;6.72;2.72;;;;;;;;;;4953533;29;20030;-82
2022/05/04 13:14:37;;;;;;;4.88;2.60;;;;;;;;;;4954508;28;20035;-81
2022/05/04 13:17:03;;;;;;;3.88;2.30;;;;;;;;;;4953388;29;20031;-82
2022/05/04 13:19:28;;;;;;;4.38;2.40;;;;;;;;;;4969699;28;20398;-81
2022/05/04 13:21:54;;;;;;;6.75;2.47;;;;;;;;;;4954581;29;20039;-81
2022/05/04 13:24:19;;;;;;;3.85;1.92;;;;;;;;;;4969886;28;20045;-81
2022/05/04 13:26:44;;;;;;;4.93;1.88;;;;;;;;;;4954270;29;20513;-80
2022/05/04 13:29:10;;;;;;;2.45;2.03;;;;;;;;;;4954353;29;20039;-80
2022/05/04 13:31:36;;;;;;;3.95;1.80;;;;;;;;;;4953153;28;20031;-82
2022/05/04 13:34:01;;;;;;;2.88;2.05;;;;;;;;;;4955306;28;20055;-82
2022/05/04 13:36:26;;;;;;;3.97;2.20;;;;;;;;;;4939606;29;20039;-85
2022/05/04 13:38:52;;;;;;;3.45;2.38;;;;;;;;;;4954930;28;20107;-85
2022/05/04 13:41:17;;;;;;;6.20;2.40;;;;;;;;;;4953143;29;20441;-84
2022/05/04 13:43:43;;;;;;;3.05;2.20;;;;;;;;;;4953066;29;20039;-85
2022/05/04 13:46:09;;;;;;;3.25;2.13;;;;;;;;;;4954574;28;20118;-85
2022/05/04 13:48:35;;;;;;;5.65;2.50;;;;;;;;;;4954367;29;20103;-85
2022/05/04 13:53:45;;;;;;;6.15;2.85;;;;;;;;;;4953097;29;20094;-85
2022/05/04 13:56:11;;;;;;;2.42;2.22;;;;;;;;;;4953779;28;20134;-85
2022/05/04 13:58:36;;;;;;;4.57;2.55;;;;;;;;;;4953731;28;20505;-85
2022/05/04 14:01:02;;;;;;;4.93;2.40;;;;;;;;;;4957870;29;20544;-85
2022/05/04 14:03:27;;;;;;;4.40;2.50;;;;;;;;;;4957495;28;20466;-85
2022/05/04 14:05:53;;;;;;;5.32;2.10;;;;;;;;;;4956367;29;20045;-85
2022/05/04 14:08:18;;;;;;;3.38;1.90;;;;;;;;;;4956802;29;20308;-84
2022/05/04 14:10:46;;;;;;;2.95;1.90;;;;;;;;;;4957681;29;20030;-86
2022/05/04 14:13:13;;;;;;;3.88;1.80;;;;;;;;;;4957697;28;20478;-85
2022/05/04 14:15:39;;;;;;;2.72;1.80;;;;;;;;;;4957034;29;20031;-85
2022/05/04 14:18:05;;;;;;;4.07;1.98;;;;;;;;;;4957757;29;20095;-85
2022/05/04 14:20:34;;;;;;;2.15;1.63;;;;;;;;;;4958399;28;20049;-85
2022/05/04 14:23:00;;;;;;;5.10;2.42;;;;;;;;;;4957421;28;20134;-85
2022/05/04 14:25:26;;;;;;;4.40;2.45;;;;;;;;;;4956273;29;20526;-85
2022/05/04 14:27:53;;;;;;;4.05;2.33;;;;;;;;;;4956446;28;20038;-85
2022/05/04 14:30:19;;;;;;;3.55;2.17;;;;;;;;;;4956485;29;20083;-85
2022/05/04 14:32:44;;;;;;;2.42;1.85;;;;;;;;;;4941308;29;20031;-85
2022/05/04 14:35:10;;;;;;;4.38;2.20;;;;;;;;;;4926157;29;20051;-85
2022/05/04 14:37:35;;;;;;;4.05;2.38;;;;;;;;;;4941175;29;20043;-84
2022/05/04 14:40:01;;;;;;;2.60;1.92;;;;;;;;;;4972091;28;20027;-84
2022/05/04 14:42:26;;;;;;;2.80;2.05;;;;;;;;;;4971897;28;20035;-85
2022/05/04 14:44:52;;;;;;;4.65;2.47;;;;;;;;;;4956364;29;20031;-85
2022/05/04 14:47:17;;;;;;;4.95;2.17;;;;;;;;;;4940272;29;20394;-84
2022/05/04 14:49:45;;;;;;;4.72;2.50;;;;;;;;;;4956291;29;20050;-84
2022/05/04 14:52:12;;;;;;;5.63;2.22;;;;;;;;;;4940431;29;20038;-85
2022/05/04 14:54:37;;;;;;;5.22;1.98;;;;;;;;;;4939905;29;20113;-85
2022/05/04 14:57:03;;;;;;;3.65;2.10;;;;;;;;;;4956341;29;20061;-84
2022/05/04 14:59:28;;;;;;;4.32;2.42;;;;;;;;;;4955446;28;20435;-84
2022/05/04 15:01:54;;;;;;;4.03;2.25;;;;;;;;;;4955679;29;20401;-85
2022/05/04 15:05:02;;;;;;;3.47;2.00;;;;;;;;;;4939439;29;20039;-85
2022/05/04 15:07:08;;;;;;;4.65;1.92;;;;;;;;;;4940282;29;20194;-84
2022/05/04 15:09:34;;;;;;;3.35;2.30;;;;;;;;;;4971264;28;20560;-84
2022/05/04 15:11:59;;;;;;;9.27;2.30;;;;;;;;;;4923791;29;20118;-85
2022/05/04 15:14:25;;;;;;;4.93;2.10;;;;;;;;;;4972151;28;20035;-84